createdAt,value
2019-02-15T00:00:58.740Z,4.20
2019-02-15T00:06:04.133Z,3.90
2019-02-15T00:11:09.524Z,3.80
2019-02-15T00:16:14.909Z,4.50
2019-02-15T00:21:21.955Z,3.67
2019-02-15T00:26:27.338Z,3.80
2019-02-15T00:31:32.744Z,3.73
2019-02-15T00:36:38.160Z,3.73
2019-02-15T00:41:44.786Z,3.80
2019-02-15T00:46:51.815Z,3.47
2019-02-15T00:52:01.717Z,3.53
2019-02-15T00:57:14.624Z,3.83
2019-02-15T01:02:27.549Z,3.13
2019-02-15T01:07:43.598Z,3.83
2019-02-15T01:12:50.625Z,3.40
2019-02-15T01:17:56.027Z,3.50
2019-02-15T01:23:01.437Z,3.50
2019-02-15T01:28:11.119Z,2.97
2019-02-15T01:33:18.186Z,3.37
2019-02-15T01:38:25.188Z,3.40
2019-02-15T01:43:40.364Z,3.13
2019-02-15T01:48:45.510Z,3.33
2019-02-15T01:53:50.936Z,3.27
2019-02-15T01:58:56.305Z,3.20
2019-02-15T02:04:01.689Z,3.30
2019-02-15T02:09:07.519Z,3.40
2019-02-15T02:14:13.980Z,3.40
2019-02-15T02:19:19.381Z,3.13
2019-02-15T02:24:24.786Z,3.20
2019-02-15T02:29:30.193Z,3.37
2019-02-15T02:34:35.578Z,3.10
2019-02-15T02:39:40.971Z,3.53
2019-02-15T02:44:46.365Z,2.73
2019-02-15T02:49:51.749Z,3.33
2019-02-15T02:54:57.137Z,2.93
2019-02-15T03:00:04.427Z,2.87
2019-02-15T03:05:10.092Z,3.13
2019-02-15T03:10:17.326Z,3.33
2019-02-15T03:15:22.722Z,3.10
2019-02-15T03:20:31.155Z,3.13
2019-02-15T03:25:35.274Z,2.97
2019-02-15T03:30:40.679Z,3.20
2019-02-15T03:35:56.571Z,2.90
2019-02-15T03:41:03.605Z,2.70
2019-02-15T03:46:09.000Z,2.80
2019-02-15T03:51:14.401Z,2.77
2019-02-15T03:56:20.845Z,3.07
2019-02-15T04:01:26.309Z,2.90
2019-02-15T04:06:31.694Z,2.90
2019-02-15T04:11:37.088Z,2.77
2019-02-15T04:16:42.547Z,2.73
2019-02-15T04:21:47.900Z,2.80
2019-02-15T04:26:53.282Z,2.83
2019-02-15T04:31:58.670Z,3.20
2019-02-15T04:37:04.064Z,2.90
2019-02-15T04:42:09.450Z,2.33
2019-02-15T04:47:14.846Z,2.97
2019-02-15T04:52:20.239Z,2.77
2019-02-15T04:57:25.638Z,2.80
2019-02-15T05:02:31.019Z,2.93
2019-02-15T05:07:36.414Z,2.63
2019-02-15T05:12:41.809Z,2.70
2019-02-15T05:17:47.212Z,2.33
2019-02-15T05:22:52.598Z,2.33
2019-02-15T05:27:57.984Z,2.73
2019-02-15T05:33:03.390Z,2.60
2019-02-15T05:38:08.784Z,2.53
2019-02-15T05:43:14.176Z,2.33
2019-02-15T05:48:19.585Z,2.70
2019-02-15T05:53:24.984Z,2.80
2019-02-15T05:58:30.384Z,2.77
2019-02-15T06:03:35.871Z,2.10
2019-02-15T06:08:41.281Z,2.57
2019-02-15T06:13:46.664Z,2.50
2019-02-15T06:18:52.045Z,2.60
2019-02-15T06:23:57.462Z,2.67
2019-02-15T06:29:02.879Z,2.73
2019-02-15T06:34:08.272Z,2.17
2019-02-15T06:39:13.662Z,2.33
2019-02-15T06:44:19.058Z,2.43
2019-02-15T06:49:24.467Z,2.43
2019-02-15T06:54:29.840Z,2.30
2019-02-15T06:59:39.883Z,2.20
2019-02-15T07:04:49.662Z,2.40
2019-02-15T07:09:55.073Z,2.20
2019-02-15T07:15:00.506Z,2.47
2019-02-15T07:20:09.823Z,2.63
2019-02-15T07:25:15.215Z,2.30
2019-02-15T07:30:20.614Z,2.40
2019-02-15T07:35:26.014Z,2.53
2019-02-15T07:40:31.408Z,2.40
2019-02-15T07:45:42.598Z,2.40
2019-02-15T07:50:43.884Z,2.33
2019-02-15T07:55:50.366Z,2.80
2019-02-15T08:00:55.757Z,2.60
2019-02-15T08:06:01.371Z,2.53
2019-02-15T08:11:08.425Z,2.53
2019-02-15T08:16:13.843Z,2.80
2019-02-15T08:21:19.281Z,2.73
2019-02-15T08:26:24.667Z,2.30
2019-02-15T08:31:30.059Z,2.70
2019-02-15T08:36:35.516Z,2.50
2019-02-15T08:41:40.904Z,2.50
2019-02-15T08:46:46.308Z,2.53
2019-02-15T08:51:51.719Z,2.37
2019-02-15T08:56:57.147Z,2.33
2019-02-15T09:02:04.166Z,2.53
2019-02-15T09:07:11.374Z,2.83
2019-02-15T09:12:16.770Z,2.80
2019-02-15T09:17:22.180Z,2.50
2019-02-15T09:22:27.573Z,2.47
2019-02-15T09:27:34.597Z,2.40
2019-02-15T09:32:39.994Z,2.80
2019-02-15T09:37:45.381Z,2.60
2019-02-15T09:42:50.789Z,3.23
2019-02-15T09:47:56.194Z,4.27
2019-02-15T09:53:01.659Z,4.33
2019-02-15T09:58:07.050Z,4.80
2019-02-15T10:27:03.235Z,4.70
